Time;durP1;ratioP1;P1;durP2;ratioP2;P2;SDS_P1;SDS_P2;PMS_P1;PMS_P2;Temp;Humidity;BMP_temperature;BMP_pressure;BME280_temperature;BME280_humidity;BME280_pressure;Samples;Min_cycle;Max_cycle;Signal;HPM_P1;HPM_P2
2023/03/09 00:00:49;;;;;;;5.40;4.03;;;;;;;;;;10370076;28;20018;-51
2023/03/09 00:05:57;;;;;;;6.82;4.55;;;;;;;;;;10370280;28;20030;-54
2023/03/09 00:10:58;;;;;;;7.72;4.47;;;;;;;;;;10370097;28;20026;-53
2023/03/09 00:16:18;;;;;;;7.82;4.22;;;;;;;;;;10369946;28;20040;-57
2023/03/09 00:26:53;;;;;;;9.70;4.55;;;;;;;;;;10360389;28;20065;-57
2023/03/09 00:31:55;;;;;;;6.93;4.40;;;;;;;;;;10369604;28;20427;-57
2023/03/09 00:36:56;;;;;;;9.35;4.50;;;;;;;;;;10369000;28;20154;-51
2023/03/09 00:41:56;;;;;;;5.97;4.15;;;;;;;;;;10369457;28;20153;-53
2023/03/09 00:46:57;;;;;;;9.88;4.53;;;;;;;;;;10368306;28;20048;-50
2023/03/09 00:51:57;;;;;;;7.05;4.10;;;;;;;;;;10368234;28;20030;-53
2023/03/09 00:57:01;;;;;;;6.70;4.55;;;;;;;;;;10367948;28;20021;-56
2023/03/09 01:02:02;;;;;;;6.30;4.40;;;;;;;;;;10368091;28;20054;-54
2023/03/09 01:07:02;;;;;;;7.13;4.35;;;;;;;;;;10367736;28;20058;-56
2023/03/09 01:12:04;;;;;;;8.52;4.82;;;;;;;;;;10367616;28;20032;-53
2023/03/09 01:17:05;;;;;;;7.45;4.57;;;;;;;;;;10368051;28;20036;-57
2023/03/09 01:22:05;;;;;;;8.43;4.40;;;;;;;;;;10367317;28;20370;-54
2023/03/09 01:27:09;;;;;;;6.88;4.28;;;;;;;;;;10367448;28;20025;-57
2023/03/09 01:32:10;;;;;;;7.75;4.60;;;;;;;;;;10367242;28;20405;-58
2023/03/09 01:37:10;;;;;;;6.20;4.10;;;;;;;;;;10367771;28;20099;-58
2023/03/09 01:42:11;;;;;;;4.47;3.85;;;;;;;;;;10367135;28;20421;-58
2023/03/09 01:47:11;;;;;;;5.80;4.25;;;;;;;;;;10367830;28;20125;-58
2023/03/09 01:52:21;;;;;;;6.00;4.55;;;;;;;;;;10366592;28;20048;-58
2023/03/09 01:57:30;;;;;;;6.90;4.68;;;;;;;;;;10374277;28;20042;-58
2023/03/09 02:02:33;;;;;;;5.75;3.80;;;;;;;;;;10373846;28;20026;-57
2023/03/09 02:07:37;;;;;;;4.72;3.90;;;;;;;;;;10373635;28;20113;-56
2023/03/09 02:12:40;;;;;;;6.82;4.40;;;;;;;;;;10374566;28;20022;-58
2023/03/09 02:17:40;;;;;;;8.25;4.28;;;;;;;;;;10373253;28;20022;-56
2023/03/09 02:22:42;;;;;;;5.25;3.70;;;;;;;;;;10372195;28;20055;-58
2023/03/09 02:27:43;;;;;;;4.57;3.22;;;;;;;;;;10373519;28;20145;-58
2023/03/09 02:32:44;;;;;;;5.28;3.45;;;;;;;;;;10372467;28;20033;-57
2023/03/09 02:37:44;;;;;;;6.18;3.90;;;;;;;;;;10373524;28;20026;-56
2023/03/09 02:42:46;;;;;;;4.40;3.50;;;;;;;;;;10372509;28;20044;-57
2023/03/09 02:47:48;;;;;;;6.32;3.78;;;;;;;;;;10373049;28;20026;-54
2023/03/09 02:52:49;;;;;;;5.60;3.92;;;;;;;;;;10372925;28;20061;-55
2023/03/09 02:57:49;;;;;;;4.90;3.55;;;;;;;;;;10373469;28;20477;-54
2023/03/09 03:02:50;;;;;;;3.88;3.33;;;;;;;;;;10372222;28;20489;-53
2023/03/09 03:07:51;;;;;;;5.15;3.67;;;;;;;;;;10371192;28;20022;-53
2023/03/09 03:12:51;;;;;;;5.85;3.80;;;;;;;;;;10371739;28;20358;-54
2023/03/09 03:17:52;;;;;;;4.78;3.65;;;;;;;;;;10371590;28;20030;-52
2023/03/09 03:22:52;;;;;;;6.85;3.70;;;;;;;;;;10371784;28;20026;-54
2023/03/09 03:27:53;;;;;;;5.47;3.63;;;;;;;;;;10371846;28;20030;-55
2023/03/09 03:32:53;;;;;;;4.18;3.55;;;;;;;;;;10370867;28;20026;-56
2023/03/09 03:37:54;;;;;;;3.83;3.47;;;;;;;;;;10371328;28;20049;-56
2023/03/09 03:42:55;;;;;;;5.47;3.55;;;;;;;;;;10370831;28;20045;-57
2023/03/09 03:47:55;;;;;;;4.28;3.58;;;;;;;;;;10371123;28;20026;-58
2023/03/09 03:52:56;;;;;;;5.82;2.97;;;;;;;;;;10370640;28;20100;-56
2023/03/09 03:57:57;;;;;;;4.22;3.25;;;;;;;;;;10370568;28;20117;-57
2023/03/09 04:02:58;;;;;;;4.28;3.08;;;;;;;;;;10371015;28;20358;-57
2023/03/09 04:07:58;;;;;;;5.10;3.42;;;;;;;;;;10369755;28;20113;-57
2023/03/09 04:12:59;;;;;;;3.53;2.53;;;;;;;;;;10369984;28;20436;-58
2023/03/09 04:18:00;;;;;;;4.78;3.20;;;;;;;;;;10369647;28;20061;-56
2023/03/09 04:23:01;;;;;;;7.03;3.40;;;;;;;;;;10369273;28;20054;-53
2023/03/09 04:28:02;;;;;;;5.15;3.67;;;;;;;;;;10369770;28;20037;-58
2023/03/09 04:33:03;;;;;;;3.50;3.03;;;;;;;;;;10368731;28;20367;-56
2023/03/09 04:38:03;;;;;;;4.82;3.42;;;;;;;;;;10369410;28;20030;-58
2023/03/09 04:43:04;;;;;;;3.78;3.30;;;;;;;;;;10368360;28;20201;-58
2023/03/09 04:48:05;;;;;;;4.57;3.20;;;;;;;;;;10368639;28;20512;-56
2023/03/09 04:53:06;;;;;;;3.97;3.15;;;;;;;;;;10368239;28;20062;-58
2023/03/09 04:58:06;;;;;;;4.45;3.53;;;;;;;;;;10368225;28;20029;-59
2023/03/09 05:03:07;;;;;;;3.47;3.03;;;;;;;;;;10368037;28;20037;-57
2023/03/09 05:08:07;;;;;;;3.33;3.00;;;;;;;;;;10367893;28;20033;-58
2023/03/09 05:13:08;;;;;;;3.70;2.97;;;;;;;;;;10367668;28;20026;-57
2023/03/09 05:18:10;;;;;;;4.20;3.13;;;;;;;;;;10367856;28;20034;-58
2023/03/09 05:23:11;;;;;;;3.20;2.90;;;;;;;;;;10367994;28;20030;-56
2023/03/09 05:28:12;;;;;;;6.75;3.00;;;;;;;;;;10369136;28;20033;-53
2023/03/09 05:33:12;;;;;;;4.53;2.90;;;;;;;;;;10375770;28;20393;-52
2023/03/09 05:38:13;;;;;;;3.17;2.80;;;;;;;;;;10375677;28;20033;-54
2023/03/09 05:43:14;;;;;;;3.40;2.92;;;;;;;;;;10375645;28;20042;-55
2023/03/09 05:48:14;;;;;;;3.85;3.08;;;;;;;;;;10375265;28;20100;-56
2023/03/09 05:53:15;;;;;;;4.28;3.20;;;;;;;;;;10374974;28;20049;-54
2023/03/09 05:58:15;;;;;;;4.32;2.85;;;;;;;;;;10374760;28;20030;-56
2023/03/09 06:03:16;;;;;;;2.88;2.55;;;;;;;;;;10374828;28;20033;-51
2023/03/09 06:08:16;;;;;;;5.05;2.65;;;;;;;;;;10374453;28;20030;-55
2023/03/09 06:13:17;;;;;;;6.38;2.97;;;;;;;;;;10374219;28;20034;-53
2023/03/09 06:18:18;;;;;;;2.90;2.58;;;;;;;;;;10374758;28;20033;-56
2023/03/09 06:23:19;;;;;;;4.05;2.90;;;;;;;;;;10374245;28;20068;-56
2023/03/09 06:28:20;;;;;;;4.20;2.45;;;;;;;;;;10373710;28;20106;-56
2023/03/09 06:33:20;;;;;;;2.75;2.33;;;;;;;;;;10373794;28;20492;-54
2023/03/09 06:38:23;;;;;;;3.00;2.47;;;;;;;;;;10373887;28;20096;-49
2023/03/09 06:43:24;;;;;;;5.50;2.83;;;;;;;;;;10372829;28;20062;-53
2023/03/09 06:48:24;;;;;;;4.50;2.88;;;;;;;;;;10372870;28;20108;-53
2023/03/09 06:53:25;;;;;;;4.50;3.33;;;;;;;;;;10372438;28;20037;-53
2023/03/09 06:58:25;;;;;;;4.25;3.28;;;;;;;;;;10372310;28;20022;-55
2023/03/09 07:03:26;;;;;;;7.78;3.65;;;;;;;;;;10372736;28;20030;-57
2023/03/09 07:08:26;;;;;;;7.50;3.92;;;;;;;;;;10371864;28;20030;-56
2023/03/09 07:13:29;;;;;;;20.75;4.50;;;;;;;;;;10370802;28;20041;-57
2023/03/09 07:18:30;;;;;;;17.73;4.43;;;;;;;;;;10372313;28;20042;-57
2023/03/09 07:23:32;;;;;;;32.78;5.32;;;;;;;;;;10371248;28;20439;-57
2023/03/09 07:28:33;;;;;;;8.32;3.78;;;;;;;;;;10371881;28;20033;-57
2023/03/09 07:33:34;;;;;;;10.30;4.47;;;;;;;;;;10371771;28;20037;-57
2023/03/09 07:38:34;;;;;;;8.27;4.30;;;;;;;;;;10370906;28;20025;-57
2023/03/09 07:43:43;;;;;;;8.45;4.55;;;;;;;;;;10370469;28;20057;-57
2023/03/09 07:48:44;;;;;;;;;;;;;;;;;;10371739;28;20045;-57
2023/03/09 07:53:45;;;;;;;12.00;4.15;;;;;;;;;;10369599;28;19913;-57
2023/03/09 07:58:46;;;;;;;7.80;3.88;;;;;;;;;;10370143;28;20026;-56
2023/03/09 08:03:47;;;;;;;9.50;4.55;;;;;;;;;;10370613;28;20025;-57
2023/03/09 08:08:47;;;;;;;9.27;4.13;;;;;;;;;;10370347;28;20481;-56
2023/03/09 08:13:48;;;;;;;12.25;4.10;;;;;;;;;;10369592;28;20200;-57
2023/03/09 08:18:49;;;;;;;10.82;4.38;;;;;;;;;;10369942;28;20516;-57
2023/03/09 08:23:50;;;;;;;12.60;4.53;;;;;;;;;;10369676;28;20466;-57
2023/03/09 08:28:51;;;;;;;9.95;4.35;;;;;;;;;;10369683;28;20026;-57
2023/03/09 08:33:51;;;;;;;9.02;4.43;;;;;;;;;;10368966;28;20084;-57
2023/03/09 08:38:52;;;;;;;8.80;4.15;;;;;;;;;;10368906;28;20022;-57
2023/03/09 08:43:54;;;;;;;7.68;5.00;;;;;;;;;;10368468;28;20042;-56
2023/03/09 08:48:56;;;;;;;6.15;4.80;;;;;;;;;;10369683;28;20030;-57
2023/03/09 08:53:56;;;;;;;10.80;4.65;;;;;;;;;;10368185;28;20041;-57
2023/03/09 08:58:57;;;;;;;10.80;4.57;;;;;;;;;;10368546;28;20042;-57
2023/03/09 09:03:58;;;;;;;8.95;4.95;;;;;;;;;;10367309;28;20021;-57
2023/03/09 09:08:58;;;;;;;10.60;4.45;;;;;;;;;;10368232;28;20473;-57
2023/03/09 09:13:59;;;;;;;10.45;5.55;;;;;;;;;;10368611;28;20025;-56
2023/03/09 09:19:00;;;;;;;12.07;4.95;;;;;;;;;;10367697;28;20492;-56
2023/03/09 09:24:00;;;;;;;10.85;5.32;;;;;;;;;;10368486;28;20018;-57
2023/03/09 09:29:01;;;;;;;6.95;4.28;;;;;;;;;;10367514;28;20026;-56
2023/03/09 09:34:02;;;;;;;9.57;3.92;;;;;;;;;;10367920;28;20121;-57
2023/03/09 09:39:03;;;;;;;5.68;4.13;;;;;;;;;;10367328;28;20479;-57
2023/03/09 09:44:09;;;;;;;10.18;4.47;;;;;;;;;;10367443;28;20050;-57
2023/03/09 09:49:28;;;;;;;6.93;4.35;;;;;;;;;;10367592;28;20030;-56
2023/03/09 09:55:06;;;;;;;6.82;4.07;;;;;;;;;;10366197;28;20375;-56
2023/03/09 10:00:15;;;;;;;10.37;4.47;;;;;;;;;;10366132;28;20044;-57
2023/03/09 10:05:40;;;;;;;6.72;4.00;;;;;;;;;;10367303;28;20493;-57
2023/03/09 10:10:42;;;;;;;7.53;3.72;;;;;;;;;;10367348;28;20076;-57
2023/03/09 10:15:44;;;;;;;7.18;3.85;;;;;;;;;;10368623;28;20104;-57
2023/03/09 10:20:52;;;;;;;6.38;4.22;;;;;;;;;;10372884;28;20385;-57
2023/03/09 10:26:07;;;;;;;4.80;3.77;;;;;;;;;;10373890;28;20397;-56
2023/03/09 10:31:37;;;;;;;8.02;3.63;;;;;;;;;;10372793;28;20117;-56
2023/03/09 10:36:46;;;;;;;7.50;3.53;;;;;;;;;;10373474;28;20113;-57
2023/03/09 10:41:46;;;;;;;10.55;4.63;;;;;;;;;;10372683;28;20113;-57
2023/03/09 10:46:59;;;;;;;5.88;4.10;;;;;;;;;;10373015;28;20054;-56
2023/03/09 10:52:05;;;;;;;10.10;4.53;;;;;;;;;;10373400;28;20092;-57
2023/03/09 10:57:30;;;;;;;5.80;4.00;;;;;;;;;;10373221;28;20076;-57
2023/03/09 11:02:36;;;;;;;7.07;3.97;;;;;;;;;;10372881;28;20025;-57
2023/03/09 11:07:38;;;;;;;4.78;3.95;;;;;;;;;;10372938;28;20034;-57
2023/03/09 11:12:39;;;;;;;8.50;4.00;;;;;;;;;;10372205;28;20045;-57
2023/03/09 11:17:46;;;;;;;5.80;4.03;;;;;;;;;;10371253;28;20037;-57
2023/03/09 11:22:52;;;;;;;7.65;3.97;;;;;;;;;;10372491;28;20033;-57
2023/03/09 11:28:02;;;;;;;7.18;4.50;;;;;;;;;;10369176;28;20029;-56
2023/03/09 11:33:10;;;;;;;6.95;4.50;;;;;;;;;;10371498;28;20358;-57
2023/03/09 11:38:14;;;;;;;6.07;4.28;;;;;;;;;;10370514;28;20029;-57
2023/03/09 11:43:29;;;;;;;5.35;3.80;;;;;;;;;;10370877;28;20042;-57
2023/03/09 11:48:35;;;;;;;7.45;4.18;;;;;;;;;;10369991;28;20030;-57
2023/03/09 11:53:50;;;;;;;7.40;4.45;;;;;;;;;;10369018;28;20109;-57
2023/03/09 11:59:10;;;;;;;12.07;4.25;;;;;;;;;;10370199;28;20477;-57
2023/03/09 12:04:15;;;;;;;7.25;5.07;;;;;;;;;;10368955;28;20091;-59
2023/03/09 12:09:41;;;;;;;8.13;4.63;;;;;;;;;;10369765;28;20739;-57
2023/03/09 12:14:52;;;;;;;7.97;4.80;;;;;;;;;;10370020;28;20030;-57
2023/03/09 12:19:53;;;;;;;10.73;5.00;;;;;;;;;;10368325;28;20509;-57
2023/03/09 12:25:15;;;;;;;11.70;4.97;;;;;;;;;;10369068;28;20500;-57
2023/03/09 12:30:25;;;;;;;5.55;4.13;;;;;;;;;;10368477;28;20485;-57
2023/03/09 12:35:28;;;;;;;9.10;5.57;;;;;;;;;;10368852;28;20041;-57
2023/03/09 12:40:35;;;;;;;10.73;5.65;;;;;;;;;;10369112;28;20026;-57
2023/03/09 12:45:36;;;;;;;12.57;4.60;;;;;;;;;;10368650;28;20042;-57
2023/03/09 12:50:42;;;;;;;11.93;4.75;;;;;;;;;;10369355;28;20033;-57
2023/03/09 12:55:49;;;;;;;7.15;4.53;;;;;;;;;;10368637;28;20033;-57
2023/03/09 13:01:06;;;;;;;6.90;4.50;;;;;;;;;;10350654;28;20378;-57
2023/03/09 13:06:40;;;;;;;6.78;4.38;;;;;;;;;;10366891;28;20034;-57
2023/03/09 13:11:45;;;;;;;7.82;5.00;;;;;;;;;;10367730;28;20034;-57
2023/03/09 13:16:49;;;;;;;5.97;4.10;;;;;;;;;;10368167;28;20036;-57
2023/03/09 13:21:55;;;;;;;9.60;4.57;;;;;;;;;;10367750;28;20036;-57
2023/03/09 13:27:04;;;;;;;8.60;4.78;;;;;;;;;;10368075;28;20030;-57
2023/03/09 13:32:15;;;;;;;7.07;4.65;;;;;;;;;;10350355;28;20026;-58
2023/03/09 13:37:20;;;;;;;7.72;4.65;;;;;;;;;;10366756;28;20030;-60
2023/03/09 13:42:21;;;;;;;7.25;3.90;;;;;;;;;;10366052;28;20068;-57
2023/03/09 13:47:29;;;;;;;6.47;4.30;;;;;;;;;;10366768;28;20050;-58
2023/03/09 13:52:29;;;;;;;5.63;4.13;;;;;;;;;;10372646;28;20436;-58
2023/03/09 13:57:35;;;;;;;6.28;4.72;;;;;;;;;;10374507;28;20088;-58
2023/03/09 14:02:37;;;;;;;12.98;3.90;;;;;;;;;;10375343;28;20200;-57
2023/03/09 14:08:18;;;;;;;8.25;4.78;;;;;;;;;;10373797;28;20050;-57
2023/03/09 14:13:23;;;;;;;5.65;4.68;;;;;;;;;;10367821;28;20037;-58
2023/03/09 14:18:45;;;;;;;12.13;5.10;;;;;;;;;;10373637;28;20109;-58
2023/03/09 14:23:46;;;;;;;8.73;4.53;;;;;;;;;;10373867;28;20038;-55
2023/03/09 14:29:21;;;;;;;28.80;5.47;;;;;;;;;;10373019;28;20022;-53
2023/03/09 14:34:27;;;;;;;28.15;5.43;;;;;;;;;;10373068;28;20037;-53
2023/03/09 14:39:33;;;;;;;23.30;5.68;;;;;;;;;;10373505;28;20049;-58
2023/03/09 14:44:42;;;;;;;30.00;6.18;;;;;;;;;;10372576;28;20049;-57
2023/03/09 14:49:51;;;;;;;37.08;5.65;;;;;;;;;;10373681;28;20036;-58
2023/03/09 14:54:52;;;;;;;22.77;5.28;;;;;;;;;;10373352;28;20037;-58
2023/03/09 14:59:53;;;;;;;27.55;6.25;;;;;;;;;;10373036;28;20030;-58
2023/03/09 15:04:54;;;;;;;20.70;5.45;;;;;;;;;;10372136;28;20029;-59
2023/03/09 15:09:55;;;;;;;30.67;5.82;;;;;;;;;;10371945;28;20026;-59
2023/03/09 15:14:56;;;;;;;29.83;5.78;;;;;;;;;;10371806;28;20041;-59
2023/03/09 15:19:57;;;;;;;22.58;5.20;;;;;;;;;;10372015;28;20026;-59
2023/03/09 15:24:57;;;;;;;20.05;5.43;;;;;;;;;;10372164;28;20037;-59
2023/03/09 15:29:58;;;;;;;13.60;6.22;;;;;;;;;;10371899;28;20038;-59
2023/03/09 15:34:58;;;;;;;22.50;5.63;;;;;;;;;;10370962;28;20033;-59
2023/03/09 15:39:59;;;;;;;17.27;5.50;;;;;;;;;;10370662;28;20052;-59
2023/03/09 15:45:00;;;;;;;16.08;6.00;;;;;;;;;;10370304;28;20413;-59
2023/03/09 15:50:00;;;;;;;14.07;5.57;;;;;;;;;;10370951;28;20033;-60
2023/03/09 15:55:02;;;;;;;13.52;5.70;;;;;;;;;;10370302;28;20034;-58
2023/03/09 16:00:04;;;;;;;11.13;4.75;;;;;;;;;;10370678;28;20037;-60
2023/03/09 16:05:08;;;;;;;14.85;5.47;;;;;;;;;;10369609;28;20087;-59
2023/03/09 16:10:09;;;;;;;9.77;4.95;;;;;;;;;;10370304;28;20037;-59
2023/03/09 16:15:10;;;;;;;11.02;5.47;;;;;;;;;;10369244;28;20041;-59
2023/03/09 16:20:14;;;;;;;10.10;5.05;;;;;;;;;;10368835;28;20030;-59
2023/03/09 16:25:17;;;;;;;7.57;4.80;;;;;;;;;;10369922;28;20029;-59
2023/03/09 16:30:18;;;;;;;11.90;5.18;;;;;;;;;;10369967;28;20060;-59
2023/03/09 16:35:21;;;;;;;11.43;5.18;;;;;;;;;;10369629;28;20030;-59
2023/03/09 16:40:22;;;;;;;8.88;5.38;;;;;;;;;;10369029;28;20281;-59
2023/03/09 16:45:22;;;;;;;11.95;5.35;;;;;;;;;;10368464;28;20277;-59
2023/03/09 16:50:24;;;;;;;16.08;5.05;;;;;;;;;;10368615;28;20033;-59
2023/03/09 16:55:25;;;;;;;13.27;5.18;;;;;;;;;;10368833;28;20029;-60
2023/03/09 17:00:25;;;;;;;10.05;4.70;;;;;;;;;;10368741;28;20466;-59
2023/03/09 17:05:26;;;;;;;10.00;5.18;;;;;;;;;;10367980;28;20042;-59
2023/03/09 17:10:27;;;;;;;10.95;4.97;;;;;;;;;;10368505;28;20398;-59
2023/03/09 17:15:27;;;;;;;15.73;5.10;;;;;;;;;;10368333;28;20149;-59
2023/03/09 17:20:28;;;;;;;9.02;4.55;;;;;;;;;;10368189;28;20040;-59
2023/03/09 17:25:29;;;;;;;8.23;4.95;;;;;;;;;;10370960;28;20022;-59
2023/03/09 17:30:29;;;;;;;6.50;4.97;;;;;;;;;;10375916;28;20325;-59
2023/03/09 17:35:30;;;;;;;9.75;4.03;;;;;;;;;;10376199;28;20033;-58
2023/03/09 17:40:30;;;;;;;8.65;3.78;;;;;;;;;;10375680;28;20176;-59
2023/03/09 17:45:31;;;;;;;11.07;4.45;;;;;;;;;;10374802;28;20065;-58
2023/03/09 17:50:32;;;;;;;12.00;4.60;;;;;;;;;;10376403;28;20060;-59
2023/03/09 17:55:32;;;;;;;7.20;4.40;;;;;;;;;;10374949;28;20026;-58
2023/03/09 18:00:33;;;;;;;10.68;4.63;;;;;;;;;;10374866;28;20026;-59
2023/03/09 18:05:36;;;;;;;10.05;4.47;;;;;;;;;;10374547;28;20030;-58
2023/03/09 18:10:41;;;;;;;7.57;4.38;;;;;;;;;;10374163;28;20267;-58
2023/03/09 18:15:49;;;;;;;8.27;4.47;;;;;;;;;;10373874;28;20100;-58
2023/03/09 18:20:50;;;;;;;9.30;4.57;;;;;;;;;;10374268;28;20425;-58
2023/03/09 18:25:51;;;;;;;12.73;4.90;;;;;;;;;;10374090;28;20088;-58
2023/03/09 18:30:52;;;;;;;9.25;4.22;;;;;;;;;;10374110;28;20026;-58
2023/03/09 18:36:01;;;;;;;9.23;4.43;;;;;;;;;;10373286;28;20037;-59
2023/03/09 18:41:01;;;;;;;;;;;;;;;;;;10373932;28;20029;-58
2023/03/09 18:46:04;;;;;;;19.08;4.85;;;;;;;;;;10372778;28;20313;-58
2023/03/09 18:51:05;;;;;;;15.30;5.00;;;;;;;;;;10372734;28;20026;-58
2023/03/09 18:56:09;;;;;;;11.98;4.75;;;;;;;;;;10372166;28;20034;-59
2023/03/09 19:01:12;;;;;;;10.15;4.40;;;;;;;;;;10372817;28;20025;-59
2023/03/09 19:06:20;;;;;;;9.65;4.18;;;;;;;;;;10372273;28;20026;-59
2023/03/09 19:11:23;;;;;;;10.82;4.88;;;;;;;;;;10371898;28;20034;-60
2023/03/09 19:16:24;;;;;;;15.40;4.65;;;;;;;;;;10371980;28;20041;-59
2023/03/09 19:21:26;;;;;;;8.70;4.38;;;;;;;;;;10371372;28;20373;-59
2023/03/09 19:26:28;;;;;;;8.93;4.15;;;;;;;;;;10371543;28;20033;-59
2023/03/09 19:31:30;;;;;;;10.90;4.65;;;;;;;;;;10371339;28;20487;-60
2023/03/09 19:36:32;;;;;;;9.43;4.38;;;;;;;;;;10371567;28;20029;-60
2023/03/09 19:41:36;;;;;;;6.07;4.00;;;;;;;;;;10371627;28;20025;-60
2023/03/09 19:46:37;;;;;;;6.38;4.53;;;;;;;;;;10370402;28;20049;-60
2023/03/09 19:51:38;;;;;;;8.23;4.47;;;;;;;;;;10371460;28;20033;-60
2023/03/09 19:56:40;;;;;;;11.85;4.20;;;;;;;;;;10370871;28;20045;-60
2023/03/09 20:01:46;;;;;;;9.18;5.07;;;;;;;;;;10370548;28;20048;-60
2023/03/09 20:06:50;;;;;;;7.70;4.18;;;;;;;;;;10370949;28;20118;-60
2023/03/09 20:11:51;;;;;;;7.93;4.57;;;;;;;;;;10370787;28;20025;-60
2023/03/09 20:16:52;;;;;;;10.88;4.85;;;;;;;;;;10369982;28;20033;-60
2023/03/09 20:21:53;;;;;;;10.02;4.45;;;;;;;;;;10370425;28;20045;-60
2023/03/09 20:26:53;;;;;;;9.25;4.30;;;;;;;;;;10369769;28;20683;-60
2023/03/09 20:31:56;;;;;;;7.75;4.22;;;;;;;;;;10369458;28;20084;-60
2023/03/09 20:36:56;;;;;;;13.98;4.45;;;;;;;;;;10369053;28;20482;-60
2023/03/09 20:41:57;;;;;;;8.57;4.30;;;;;;;;;;10368954;28;20034;-60
2023/03/09 20:46:59;;;;;;;8.43;3.88;;;;;;;;;;10368590;28;20265;-60
2023/03/09 20:52:00;;;;;;;6.53;4.18;;;;;;;;;;10368598;28;20478;-60
2023/03/09 20:57:01;;;;;;;6.70;4.60;;;;;;;;;;10368557;28;20030;-60
2023/03/09 21:02:02;;;;;;;8.57;5.32;;;;;;;;;;10368590;28;20033;-60
2023/03/09 21:07:03;;;;;;;9.50;4.22;;;;;;;;;;10368762;28;20033;-60
2023/03/09 21:12:04;;;;;;;8.18;4.43;;;;;;;;;;10368129;28;20378;-60
2023/03/09 21:17:05;;;;;;;9.27;5.15;;;;;;;;;;10368907;28;20092;-60
2023/03/09 21:22:06;;;;;;;8.48;4.45;;;;;;;;;;10368354;28;20030;-60
2023/03/09 21:27:07;;;;;;;8.20;4.20;;;;;;;;;;10368482;28;20409;-60
2023/03/09 21:32:08;;;;;;;6.57;4.30;;;;;;;;;;10368592;28;20104;-60
2023/03/09 21:37:09;;;;;;;6.53;4.20;;;;;;;;;;10367641;28;20458;-60
2023/03/09 21:42:10;;;;;;;5.65;4.20;;;;;;;;;;10367610;28;20653;-60
2023/03/09 21:47:10;;;;;;;7.85;4.32;;;;;;;;;;10366798;28;20188;-59
2023/03/09 21:52:11;;;;;;;6.45;4.60;;;;;;;;;;10365956;28;20125;-60
2023/03/09 21:57:13;;;;;;;7.10;3.95;;;;;;;;;;10366791;28;20072;-60
2023/03/09 22:02:18;;;;;;;7.20;4.43;;;;;;;;;;10367421;28;20018;-60
2023/03/09 22:07:18;;;;;;;5.32;3.72;;;;;;;;;;10367432;28;20113;-60
2023/03/09 22:12:19;;;;;;;5.30;3.90;;;;;;;;;;10371105;28;20030;-60
2023/03/09 22:17:20;;;;;;;9.52;4.78;;;;;;;;;;10374457;28;20029;-59
2023/03/09 22:22:20;;;;;;;7.63;4.30;;;;;;;;;;10373782;28;20022;-59
2023/03/09 22:27:21;;;;;;;7.47;4.57;;;;;;;;;;10373520;28;20033;-59
2023/03/09 22:32:21;;;;;;;8.02;4.93;;;;;;;;;;10373014;28;20057;-59
2023/03/09 22:37:25;;;;;;;6.63;3.88;;;;;;;;;;10373265;28;20056;-60
2023/03/09 22:42:27;;;;;;;8.43;4.20;;;;;;;;;;10373275;28;20477;-59
2023/03/09 22:47:28;;;;;;;11.25;4.10;;;;;;;;;;10374155;28;20053;-59
2023/03/09 22:52:29;;;;;;;18.38;4.15;;;;;;;;;;10373207;28;20037;-59
2023/03/09 22:57:31;;;;;;;11.65;4.43;;;;;;;;;;10371292;28;20036;-59
2023/03/09 23:02:32;;;;;;;5.35;3.92;;;;;;;;;;10372907;28;20404;-59
2023/03/09 23:07:32;;;;;;;8.48;4.43;;;;;;;;;;10372451;28;20030;-60
2023/03/09 23:12:33;;;;;;;10.88;4.65;;;;;;;;;;10372328;28;20018;-59
2023/03/09 23:17:34;;;;;;;12.75;4.55;;;;;;;;;;10371881;28;20061;-60
2023/03/09 23:22:35;;;;;;;8.50;4.45;;;;;;;;;;10371141;28;20025;-59
2023/03/09 23:27:35;;;;;;;10.43;4.72;;;;;;;;;;10372160;28;20034;-60
2023/03/09 23:32:40;;;;;;;11.45;4.65;;;;;;;;;;10371519;28;20029;-60
2023/03/09 23:37:41;;;;;;;6.45;4.00;;;;;;;;;;10371698;28;20044;-59
2023/03/09 23:42:42;;;;;;;9.85;4.20;;;;;;;;;;10370601;28;20400;-60
2023/03/09 23:47:43;;;;;;;9.52;4.38;;;;;;;;;;10371235;28;20029;-60
2023/03/09 23:52:43;;;;;;;12.50;4.15;;;;;;;;;;10370992;28;20018;-60
2023/03/09 23:57:44;;;;;;;12.73;4.80;;;;;;;;;;10370331;28;20038;-59
